Austin, Kentucky
Current Conditions -  °F | °C
As of 11:15 PM on Sunday 21 Dec 2014 (Local Time) from KGLW Reporting Station
Broken Clouds Broken Clouds  
Wind Chill: 36°   Ceiling: 4700
Heat Index: 36°   Visibility: 10mi
Dew Point: 29°   Wind: 3mph
Humidity: 74%   Direction: 80°E
Pressure: 30.03"   Gusts: NA
Location:  36.83°N, 86.02°W
Report Text: KGLW 220515Z AUTO 08003KT 10SM BKN047 02/M02 A3003 RMK AO2 T00231019
Loading
Personal Weather Stations






























Interactive Weather Map New forecast layout! Learn more

10-Day Weather Forecast

Advertisements
Track Severe Weather on mobile